createdAt,value
2022-11-25T00:02:15.310Z,79.96
2022-11-25T00:04:47.678Z,80.83
2022-11-25T00:07:20.065Z,80.91
2022-11-25T00:09:52.498Z,80.57
2022-11-25T00:12:24.865Z,79.79
2022-11-25T00:14:57.202Z,81.66
2022-11-25T00:17:30.234Z,81.09
2022-11-25T00:20:05.318Z,81.62
2022-11-25T00:22:37.750Z,80.65
2022-11-25T00:25:10.092Z,82.48
2022-11-25T00:27:42.424Z,83.14
2022-11-25T00:30:15.105Z,82.48
2022-11-25T00:32:48.155Z,82.79
2022-11-25T00:35:20.698Z,81.95
2022-11-25T00:37:53.047Z,82.64
2022-11-25T00:40:26.157Z,83.18
2022-11-25T00:43:16.712Z,82.66
2022-11-25T00:45:49.143Z,80.77
2022-11-25T00:48:22.234Z,80.84
2022-11-25T00:50:54.547Z,82.54
2022-11-25T00:53:26.912Z,83.45
2022-11-25T00:56:13.509Z,81.28
2022-11-25T00:58:45.934Z,81.38
2022-11-25T01:01:18.444Z,81.75
2022-11-25T01:03:52.640Z,80.84
2022-11-25T01:06:25.187Z,81.58
2022-11-25T01:08:59.668Z,80.49
2022-11-25T01:11:32.010Z,80.07
2022-11-25T01:14:04.598Z,80.68
2022-11-25T01:16:37.097Z,80.90
2022-11-25T01:19:11.889Z,80.55
2022-11-25T01:21:44.849Z,80.54
2022-11-25T01:24:17.898Z,80.73
2022-11-25T01:26:50.336Z,80.70
2022-11-25T01:29:23.505Z,80.83
2022-11-25T01:31:59.193Z,81.37
2022-11-25T01:34:34.032Z,82.36
2022-11-25T01:37:06.579Z,81.41
2022-11-25T01:39:39.130Z,81.93
2022-11-25T01:42:11.470Z,81.98
2022-11-25T01:44:43.822Z,80.93
2022-11-25T01:47:22.752Z,80.96
2022-11-25T01:50:02.157Z,81.21
2022-11-25T01:52:38.034Z,82.03
2022-11-25T01:55:15.261Z,81.37
2022-11-25T01:57:54.194Z,80.58
2022-11-25T02:00:26.605Z,80.21
2022-11-25T02:02:59.391Z,81.09
2022-11-25T02:05:41.926Z,82.29
2022-11-25T02:08:15.746Z,82.98
2022-11-25T02:10:48.461Z,83.89
2022-11-25T02:13:24.051Z,83.19
2022-11-25T02:15:56.686Z,84.38
2022-11-25T02:18:30.367Z,84.77
2022-11-25T02:21:03.561Z,84.53
2022-11-25T02:23:42.118Z,84.22
2022-11-25T02:26:15.991Z,84.14
2022-11-25T02:28:48.507Z,82.99
2022-11-25T02:31:22.293Z,83.78
2022-11-25T02:33:54.718Z,82.42
2022-11-25T02:36:27.162Z,82.98
2022-11-25T02:39:01.968Z,82.71
2022-11-25T02:41:42.896Z,83.05
2022-11-25T02:44:15.295Z,81.41
2022-11-25T02:46:47.942Z,82.66
2022-11-25T02:49:20.282Z,81.78
2022-11-25T02:51:52.613Z,79.67
2022-11-25T02:54:25.050Z,79.91
2022-11-25T02:56:58.098Z,79.06
2022-11-25T02:59:30.539Z,79.83
2022-11-25T03:02:03.992Z,81.05
2022-11-25T03:04:37.527Z,79.41
2022-11-25T03:07:10.357Z,80.15
2022-11-25T03:09:43.302Z,80.30
2022-11-25T03:12:21.324Z,81.56
2022-11-25T03:14:58.545Z,80.72
2022-11-25T03:17:30.928Z,80.97
2022-11-25T03:20:03.712Z,81.19
2022-11-25T03:22:37.302Z,82.20
2022-11-25T03:25:11.878Z,83.65
2022-11-25T03:27:45.074Z,83.34
2022-11-25T03:30:19.653Z,82.89
2022-11-25T03:32:53.737Z,82.34
2022-11-25T03:35:26.299Z,83.72
2022-11-25T03:37:58.918Z,83.95
2022-11-25T03:40:31.304Z,84.15
2022-11-25T03:43:05.111Z,83.81
2022-11-25T03:45:37.753Z,81.88
2022-11-25T03:48:12.766Z,81.93
2022-11-25T03:50:47.924Z,82.09
2022-11-25T03:53:20.261Z,83.50
2022-11-25T03:55:52.958Z,82.59
2022-11-25T03:58:28.604Z,82.44
2022-11-25T04:01:02.108Z,82.32
2022-11-25T04:03:35.185Z,82.44
2022-11-25T04:06:10.419Z,81.57
2022-11-25T04:08:44.238Z,82.32
2022-11-25T04:11:16.938Z,80.75
2022-11-25T04:13:53.144Z,82.58
2022-11-25T04:16:26.617Z,82.10
2022-11-25T04:19:00.291Z,82.02
2022-11-25T04:21:33.113Z,81.38
2022-11-25T04:24:07.214Z,83.63
2022-11-25T04:26:39.821Z,83.41
2022-11-25T04:29:12.871Z,83.32
2022-11-25T04:31:45.424Z,83.69
2022-11-25T04:34:17.769Z,82.93
2022-11-25T04:36:52.280Z,83.19
2022-11-25T04:39:24.961Z,83.65
2022-11-25T04:42:15.269Z,83.08
2022-11-25T04:45:07.341Z,82.47
2022-11-25T04:47:41.647Z,82.39
2022-11-25T04:50:16.509Z,82.99
2022-11-25T04:52:58.622Z,81.97
2022-11-25T04:55:31.360Z,83.15
2022-11-25T04:58:06.526Z,82.86
2022-11-25T05:00:41.099Z,82.09
2022-11-25T05:03:15.604Z,82.66
2022-11-25T05:05:48.058Z,82.78
2022-11-25T05:08:20.454Z,82.97
2022-11-25T05:10:53.014Z,82.59
2022-11-25T05:13:25.937Z,83.50
2022-11-25T05:15:59.731Z,82.60
2022-11-25T05:18:32.368Z,81.78
2022-11-25T05:21:06.814Z,82.00
2022-11-25T05:23:43.299Z,81.90
2022-11-25T05:26:15.813Z,82.00
2022-11-25T05:28:52.154Z,81.68
2022-11-25T05:31:25.242Z,81.62
2022-11-25T05:34:00.584Z,81.48
2022-11-25T05:36:33.023Z,81.75
2022-11-25T05:39:05.805Z,81.72
2022-11-25T05:42:01.672Z,80.67
2022-11-25T05:44:34.120Z,79.67
2022-11-25T05:47:08.582Z,80.23
2022-11-25T05:49:41.021Z,81.92
2022-11-25T05:52:13.466Z,80.67
2022-11-25T05:54:57.298Z,80.81
2022-11-25T05:57:31.377Z,80.27
2022-11-25T06:00:13.649Z,78.74
2022-11-25T06:02:52.180Z,79.25
2022-11-25T06:05:25.493Z,79.68
2022-11-25T06:07:58.021Z,80.04
2022-11-25T06:10:31.437Z,80.28
2022-11-25T06:13:03.846Z,79.42
2022-11-25T06:15:40.829Z,78.80
2022-11-25T06:18:16.452Z,79.15
2022-11-25T06:20:56.254Z,80.44
2022-11-25T06:23:28.409Z,78.60
2022-11-25T06:26:05.262Z,79.20
2022-11-25T06:28:37.709Z,79.57
2022-11-25T06:31:12.194Z,79.25
2022-11-25T06:33:53.715Z,78.63
2022-11-25T06:36:26.162Z,78.31
2022-11-25T06:38:58.558Z,77.98
2022-11-25T06:41:30.959Z,77.85
2022-11-25T06:44:03.471Z,77.10
2022-11-25T06:46:35.924Z,77.24
2022-11-25T06:49:09.042Z,77.41
2022-11-25T06:51:41.451Z,78.29
2022-11-25T06:54:13.767Z,77.12
2022-11-25T06:56:50.869Z,76.66
2022-11-25T06:59:23.410Z,77.20
2022-11-25T07:01:55.979Z,76.64
2022-11-25T07:04:29.275Z,77.19
2022-11-25T07:07:01.572Z,77.57
2022-11-25T07:09:34.116Z,77.32
2022-11-25T07:12:07.611Z,75.55
2022-11-25T07:14:40.027Z,76.10
2022-11-25T07:17:12.613Z,75.76
2022-11-25T07:19:45.576Z,75.88
2022-11-25T07:22:17.957Z,75.51
2022-11-25T07:24:50.341Z,76.45
2022-11-25T07:27:22.720Z,74.67
2022-11-25T07:30:29.258Z,75.04
2022-11-25T07:32:47.431Z,74.79
2022-11-25T07:35:20.467Z,74.34
2022-11-25T07:37:52.849Z,74.99
2022-11-25T07:40:25.193Z,74.50
2022-11-25T07:42:57.552Z,74.63
2022-11-25T07:45:29.904Z,73.65
2022-11-25T07:48:12.772Z,73.99
2022-11-25T07:50:46.264Z,74.84
2022-11-25T07:53:18.654Z,74.70
2022-11-25T07:55:51.096Z,73.31
2022-11-25T07:58:23.499Z,73.49
2022-11-25T08:00:55.824Z,72.81
2022-11-25T08:03:28.169Z,72.76
2022-11-25T08:06:01.624Z,73.56
2022-11-25T08:08:34.283Z,72.00
2022-11-25T08:11:07.170Z,71.95
2022-11-25T08:13:39.899Z,73.08
2022-11-25T08:16:14.129Z,72.05
2022-11-25T08:18:46.880Z,71.20
2022-11-25T08:21:20.826Z,70.70
2022-11-25T08:23:53.673Z,71.27
2022-11-25T08:26:29.564Z,71.67
2022-11-25T08:29:03.345Z,69.96
2022-11-25T08:31:37.857Z,69.70
2022-11-25T08:34:17.356Z,70.55
2022-11-25T08:36:51.718Z,69.46
2022-11-25T08:42:16.414Z,69.29
2022-11-25T08:44:52.870Z,69.69
2022-11-25T08:47:25.644Z,68.94
2022-11-25T08:49:58.463Z,68.84
2022-11-25T08:52:31.532Z,69.82
2022-11-25T08:55:04.680Z,68.86
2022-11-25T08:57:37.392Z,69.90
2022-11-25T09:00:11.087Z,68.67
2022-11-25T09:02:43.762Z,68.27
2022-11-25T09:05:17.066Z,68.53
2022-11-25T09:07:50.223Z,68.89
2022-11-25T09:10:22.713Z,70.30
2022-11-25T09:12:55.096Z,68.80
2022-11-25T09:15:27.447Z,68.97
2022-11-25T09:18:00.681Z,68.21
2022-11-25T09:20:33.727Z,67.19
2022-11-25T09:23:08.357Z,67.54
2022-11-25T09:25:40.745Z,67.82
2022-11-25T09:28:13.182Z,66.93
2022-11-25T09:30:45.581Z,68.01
2022-11-25T09:33:18.942Z,67.86
2022-11-25T09:35:51.359Z,67.44
2022-11-25T09:38:24.369Z,66.97
2022-11-25T09:41:01.280Z,67.98
2022-11-25T09:44:04.094Z,66.74
2022-11-25T09:46:53.974Z,66.13
2022-11-25T09:49:40.608Z,66.58
2022-11-25T09:52:19.150Z,66.45
2022-11-25T09:55:02.313Z,66.48
2022-11-25T09:57:51.964Z,66.97
2022-11-25T10:00:36.623Z,67.78
2022-11-25T10:03:16.919Z,66.26
2022-11-25T10:05:58.670Z,66.62
2022-11-25T10:08:35.617Z,67.67
2022-11-25T10:11:21.163Z,66.97
2022-11-25T10:14:00.395Z,68.28
2022-11-25T10:16:38.795Z,67.77
2022-11-25T10:19:20.848Z,67.13
2022-11-25T10:21:53.266Z,66.85
2022-11-25T10:24:25.860Z,67.26
2022-11-25T10:27:05.317Z,66.17
2022-11-25T10:29:38.252Z,66.21
2022-11-25T10:32:21.894Z,65.24
2022-11-25T10:34:59.081Z,65.40
2022-11-25T10:37:37.744Z,65.26
2022-11-25T10:40:15.199Z,65.17
2022-11-25T10:42:48.326Z,65.93
2022-11-25T10:45:28.501Z,64.88
2022-11-25T10:48:18.123Z,65.16
2022-11-25T10:51:05.278Z,65.70
2022-11-25T10:53:38.166Z,65.90
2022-11-25T10:56:16.856Z,66.14
2022-11-25T10:58:50.028Z,65.43
2022-11-25T11:01:24.939Z,66.38
2022-11-25T11:04:05.544Z,67.12
2022-11-25T11:06:39.970Z,66.93
2022-11-25T11:09:32.419Z,68.11
2022-11-25T11:12:15.590Z,67.90
2022-11-25T11:14:49.276Z,68.87
2022-11-25T11:17:34.727Z,69.72
2022-11-25T11:20:21.859Z,68.96
2022-11-25T11:23:07.070Z,68.82
2022-11-25T11:25:43.186Z,69.49
2022-11-25T11:28:27.362Z,70.30
2022-11-25T11:31:02.952Z,69.80
2022-11-25T11:33:41.097Z,68.93
2022-11-25T11:36:30.360Z,69.35
2022-11-25T11:39:20.929Z,69.51
2022-11-25T11:42:01.079Z,70.14
2022-11-25T11:44:39.957Z,70.25
2022-11-25T11:47:24.618Z,70.54
2022-11-25T11:50:08.732Z,70.79
2022-11-25T11:52:54.655Z,70.38
2022-11-25T11:56:18.966Z,70.88
2022-11-25T11:59:01.493Z,70.13
2022-11-25T12:01:48.357Z,69.38
2022-11-25T12:04:27.739Z,70.29
2022-11-25T12:07:05.824Z,71.19
2022-11-25T12:09:47.643Z,69.90
2022-11-25T12:12:26.816Z,70.78
2022-11-25T12:15:05.913Z,69.27
2022-11-25T12:17:43.790Z,69.70
2022-11-25T12:20:22.808Z,70.63
2022-11-25T12:23:01.088Z,70.93
2022-11-25T12:25:36.907Z,71.22
2022-11-25T12:28:15.419Z,70.60
2022-11-25T12:31:10.896Z,70.29
2022-11-25T12:33:54.349Z,70.50
2022-11-25T12:36:32.786Z,70.67
2022-11-25T12:39:18.358Z,71.01
2022-11-25T12:41:53.937Z,70.54
2022-11-25T12:44:31.810Z,71.02
2022-11-25T12:47:10.770Z,71.13
2022-11-25T12:49:45.219Z,69.80
2022-11-25T12:52:33.997Z,69.97
2022-11-25T12:55:13.215Z,70.88
2022-11-25T12:58:21.637Z,69.37
2022-11-25T13:01:21.284Z,69.85
2022-11-25T13:04:14.744Z,68.99
2022-11-25T13:07:20.376Z,69.16
2022-11-25T13:10:25.617Z,69.94
2022-11-25T13:13:16.269Z,69.99
2022-11-25T13:15:53.121Z,69.63
2022-11-25T13:18:30.624Z,68.37
2022-11-25T13:21:07.584Z,69.09
2022-11-25T13:23:48.966Z,68.76
2022-11-25T13:26:51.106Z,68.54
2022-11-25T13:30:02.496Z,68.01
2022-11-25T13:32:41.457Z,67.58
2022-11-25T13:35:46.689Z,67.69
2022-11-25T13:38:56.730Z,68.12
2022-11-25T13:41:49.512Z,67.79
2022-11-25T13:44:27.400Z,67.99
2022-11-25T13:47:15.191Z,67.71
2022-11-25T13:49:52.261Z,66.88
2022-11-25T13:52:37.804Z,67.00
2022-11-25T13:55:24.786Z,66.04
2022-11-25T13:58:14.955Z,66.21
2022-11-25T14:01:01.646Z,65.31
2022-11-25T14:03:49.677Z,65.27
2022-11-25T14:06:50.631Z,65.50
2022-11-25T14:09:37.696Z,65.36
2022-11-25T14:12:23.837Z,65.83
2022-11-25T14:15:29.307Z,66.60
2022-11-25T14:19:00.423Z,66.01
2022-11-25T14:21:48.206Z,65.59
2022-11-25T14:24:29.633Z,66.18
2022-11-25T14:27:03.152Z,68.21
2022-11-25T14:29:41.609Z,68.14
2022-11-25T14:32:18.261Z,68.50
2022-11-25T14:34:56.710Z,68.12
2022-11-25T14:37:36.648Z,68.43
2022-11-25T14:40:15.418Z,69.19
2022-11-25T14:42:52.346Z,69.81
2022-11-25T14:45:28.497Z,69.74
2022-11-25T14:48:13.780Z,70.66
2022-11-25T14:50:56.231Z,70.59
2022-11-25T14:53:30.053Z,70.72
2022-11-25T14:56:04.375Z,72.28
2022-11-25T14:58:40.990Z,71.86
2022-11-25T15:01:19.468Z,71.71
2022-11-25T15:04:02.064Z,72.60
2022-11-25T15:06:36.639Z,72.30
2022-11-25T15:09:19.970Z,73.14
2022-11-25T15:11:56.304Z,73.19
2022-11-25T15:14:31.636Z,72.84
2022-11-25T15:17:07.566Z,73.58
2022-11-25T15:19:40.910Z,73.75
2022-11-25T15:22:25.003Z,73.47
2022-11-25T15:25:08.481Z,74.19
2022-11-25T15:27:44.614Z,73.98
2022-11-25T15:30:22.419Z,73.94
2022-11-25T15:32:56.350Z,73.55
2022-11-25T15:35:29.586Z,73.70
2022-11-25T15:38:17.141Z,74.92
2022-11-25T15:40:55.327Z,75.64
2022-11-25T15:43:30.306Z,75.12
2022-11-25T15:46:05.363Z,74.39
2022-11-25T15:48:41.228Z,74.84
2022-11-25T15:51:24.225Z,74.83
2022-11-25T15:54:01.600Z,75.53
2022-11-25T15:56:38.424Z,75.56
2022-11-25T15:59:55.515Z,75.50
2022-11-25T16:02:39.562Z,76.11
2022-11-25T16:05:17.475Z,76.05
2022-11-25T16:08:15.522Z,75.89
2022-11-25T16:10:53.633Z,76.36
2022-11-25T16:13:32.591Z,75.13
2022-11-25T16:16:13.112Z,75.63
2022-11-25T16:19:05.399Z,75.31
2022-11-25T16:21:58.515Z,75.29
2022-11-25T16:24:38.996Z,75.96
2022-11-25T16:27:17.824Z,75.85
2022-11-25T16:29:53.278Z,74.66
2022-11-25T16:32:28.231Z,75.64
2022-11-25T16:35:11.712Z,75.00
2022-11-25T16:37:48.842Z,74.65
2022-11-25T16:40:22.654Z,74.42
2022-11-25T16:42:55.442Z,74.59
2022-11-25T16:45:28.494Z,75.83
2022-11-25T16:48:00.972Z,75.92
2022-11-25T16:50:33.297Z,75.59
2022-11-25T16:53:05.632Z,75.01
2022-11-25T16:55:41.369Z,75.80
2022-11-25T16:58:18.553Z,75.80
2022-11-25T17:00:53.746Z,76.36
2022-11-25T17:03:26.092Z,76.62
2022-11-25T17:05:59.269Z,77.46
2022-11-25T17:08:31.801Z,76.74
2022-11-25T17:11:05.278Z,76.43
2022-11-25T17:13:41.507Z,76.55
2022-11-25T17:16:17.734Z,77.53
2022-11-25T17:18:52.461Z,78.19
2022-11-25T17:21:27.272Z,78.11
2022-11-25T17:24:02.013Z,77.73
2022-11-25T17:26:37.189Z,77.66
2022-11-25T17:29:14.260Z,78.87
2022-11-25T17:31:47.006Z,78.03
2022-11-25T17:34:19.396Z,78.28
2022-11-25T17:36:51.779Z,79.13
2022-11-25T17:39:24.272Z,78.97
2022-11-25T17:41:57.370Z,78.56
2022-11-25T17:44:29.931Z,79.00
2022-11-25T17:47:02.266Z,79.31
2022-11-25T17:49:34.590Z,80.15
2022-11-25T17:52:07.574Z,79.84
2022-11-25T17:54:40.327Z,80.71
2022-11-25T17:57:18.920Z,81.30
2022-11-25T17:59:51.282Z,81.73
2022-11-25T18:02:23.878Z,82.28
2022-11-25T18:04:56.266Z,81.88
2022-11-25T18:07:28.666Z,81.65
2022-11-25T18:10:01.091Z,80.91
2022-11-25T18:12:35.853Z,81.12
2022-11-25T18:15:15.456Z,81.87
2022-11-25T18:17:48.997Z,81.73
2022-11-25T18:20:23.817Z,82.23
2022-11-25T18:22:56.262Z,82.94
2022-11-25T18:25:31.012Z,82.87
2022-11-25T18:28:04.929Z,82.80
2022-11-25T18:30:38.152Z,82.97
2022-11-25T18:33:12.902Z,83.31
2022-11-25T18:35:46.109Z,82.82
2022-11-25T18:38:18.509Z,83.03
2022-11-25T18:40:53.751Z,82.93
2022-11-25T18:43:27.583Z,82.66
2022-11-25T18:46:00.426Z,83.63
2022-11-25T18:48:33.163Z,83.62
2022-11-25T18:51:05.661Z,83.41
2022-11-25T18:53:37.987Z,83.50
2022-11-25T18:56:17.501Z,84.16
2022-11-25T18:58:51.412Z,85.57
2022-11-25T19:01:23.934Z,85.24
2022-11-25T19:03:57.056Z,85.03
2022-11-25T19:06:29.568Z,85.30
2022-11-25T19:09:03.251Z,85.25
2022-11-25T19:11:38.919Z,85.11
2022-11-25T19:14:15.429Z,85.01
2022-11-25T19:16:47.948Z,84.13
2022-11-25T19:19:20.311Z,83.96
2022-11-25T19:21:52.685Z,84.58
2022-11-25T19:24:25.099Z,84.44
2022-11-25T19:26:57.540Z,84.09
2022-11-25T19:29:38.752Z,85.61
2022-11-25T19:32:18.979Z,86.36
2022-11-25T19:34:54.820Z,86.07
2022-11-25T19:37:29.512Z,85.16
2022-11-25T19:40:04.031Z,85.55
2022-11-25T19:42:36.404Z,86.00
2022-11-25T19:45:12.468Z,85.33
2022-11-25T19:47:46.771Z,85.36
2022-11-25T19:50:22.216Z,85.85
2022-11-25T19:52:54.805Z,85.30
2022-11-25T19:55:29.236Z,84.94
2022-11-25T19:58:01.602Z,85.95
2022-11-25T20:00:34.719Z,84.93
2022-11-25T20:03:16.130Z,86.14
2022-11-25T20:05:49.436Z,86.36
2022-11-25T20:08:24.155Z,86.22
2022-11-25T20:10:57.203Z,86.51
2022-11-25T20:13:29.579Z,86.95
2022-11-25T20:16:03.402Z,87.23
2022-11-25T20:18:37.172Z,86.52
2022-11-25T20:21:17.605Z,87.49
2022-11-25T20:23:50.746Z,86.96
2022-11-25T20:26:29.405Z,86.63
2022-11-25T20:29:01.922Z,87.33
2022-11-25T20:31:35.040Z,87.70
2022-11-25T20:34:07.459Z,88.32
2022-11-25T20:36:41.950Z,88.10
2022-11-25T20:39:17.732Z,88.38
2022-11-25T20:41:52.230Z,89.11
2022-11-25T20:44:24.654Z,88.74
2022-11-25T20:46:57.692Z,88.04
2022-11-25T20:49:30.227Z,88.07
2022-11-25T20:52:02.697Z,88.03
2022-11-25T20:54:36.193Z,88.12
2022-11-25T20:57:10.396Z,89.05
2022-11-25T20:59:43.915Z,89.06
2022-11-25T21:02:17.252Z,88.47
2022-11-25T21:04:49.656Z,87.94
2022-11-25T21:07:22.046Z,88.66
2022-11-25T21:09:54.524Z,88.74
2022-11-25T21:12:26.920Z,89.62
2022-11-25T21:14:59.240Z,89.86
2022-11-25T21:17:32.282Z,90.02
2022-11-25T21:20:05.606Z,90.17
2022-11-25T21:22:41.384Z,90.57
2022-11-25T21:25:17.125Z,90.05
2022-11-25T21:27:50.381Z,89.37
2022-11-25T21:30:24.800Z,90.02
2022-11-25T21:32:59.891Z,90.35
2022-11-25T21:35:34.466Z,91.12
2022-11-25T21:38:11.517Z,90.75
2022-11-25T21:40:46.245Z,90.79
2022-11-25T21:43:21.773Z,91.20
2022-11-25T21:45:59.927Z,91.05
2022-11-25T21:48:33.852Z,90.72
2022-11-25T21:51:06.254Z,91.26
2022-11-25T21:53:38.719Z,92.51
2022-11-25T21:56:17.701Z,91.84
2022-11-25T21:58:50.215Z,90.81
2022-11-25T22:01:23.649Z,90.87
2022-11-25T22:03:56.798Z,91.34
2022-11-25T22:06:30.128Z,91.31
2022-11-25T22:09:02.531Z,90.51
2022-11-25T22:11:38.219Z,89.97
2022-11-25T22:14:14.648Z,89.81
2022-11-25T22:16:47.181Z,90.13
2022-11-25T22:19:23.414Z,89.29
2022-11-25T22:21:55.975Z,89.74
2022-11-25T22:24:29.229Z,90.37
2022-11-25T22:27:02.770Z,90.72
2022-11-25T22:29:36.310Z,90.10
2022-11-25T22:32:12.915Z,89.39
2022-11-25T22:34:46.049Z,90.58
2022-11-25T22:37:20.468Z,90.89
2022-11-25T22:39:52.859Z,91.25
2022-11-25T22:42:28.131Z,91.25
2022-11-25T22:45:03.299Z,90.84
2022-11-25T22:47:40.536Z,91.02
2022-11-25T22:50:18.903Z,91.18
2022-11-25T22:52:52.235Z,90.71
2022-11-25T22:55:26.303Z,91.14
2022-11-25T22:58:00.150Z,90.57
2022-11-25T23:00:36.567Z,91.77
2022-11-25T23:03:17.850Z,92.40
2022-11-25T23:05:52.403Z,92.63
2022-11-25T23:08:27.123Z,92.23
2022-11-25T23:10:59.928Z,91.86
2022-11-25T23:13:32.416Z,91.71
2022-11-25T23:16:05.562Z,92.44
2022-11-25T23:18:40.208Z,93.77
2022-11-25T23:21:17.248Z,94.61
2022-11-25T23:23:50.673Z,94.28
2022-11-25T23:26:23.266Z,94.61
2022-11-25T23:28:55.739Z,94.08
2022-11-25T23:31:28.183Z,93.81
2022-11-25T23:34:00.808Z,94.29
2022-11-25T23:36:41.746Z,94.53
2022-11-25T23:39:18.821Z,94.13
2022-11-25T23:41:51.251Z,94.55
2022-11-25T23:44:26.179Z,93.96
2022-11-25T23:47:00.893Z,94.71
2022-11-25T23:49:36.163Z,94.68
2022-11-25T23:52:14.342Z,93.65
2022-11-25T23:54:49.431Z,93.28
2022-11-25T23:57:24.658Z,92.80
2022-11-25T23:59:57.099Z,92.93
